sensor_id;sensor_type;location;lat;lon;timestamp;P1;durP1;ratioP1;P2;durP2;ratioP2
14133;SDS011;7147;59.364;18.018;2022-09-24T00:01:24;4.20;;;0.70;;
14133;SDS011;7147;59.364;18.018;2022-09-24T00:03:54;5.15;;;0.70;;
14133;SDS011;7147;59.364;18.018;2022-09-24T00:06:23;4.57;;;0.70;;
14133;SDS011;7147;59.364;18.018;2022-09-24T00:08:52;2.58;;;0.50;;
14133;SDS011;7147;59.364;18.018;2022-09-24T00:11:20;2.70;;;0.50;;
14133;SDS011;7147;59.364;18.018;2022-09-24T00:13:48;3.35;;;0.60;;
14133;SDS011;7147;59.364;18.018;2022-09-24T00:16:16;3.92;;;0.60;;
14133;SDS011;7147;59.364;18.018;2022-09-24T00:18:44;5.37;;;0.60;;
14133;SDS011;7147;59.364;18.018;2022-09-24T00:21:13;2.47;;;0.45;;
14133;SDS011;7147;59.364;18.018;2022-09-24T00:23:42;3.37;;;0.50;;
14133;SDS011;7147;59.364;18.018;2022-09-24T00:26:10;2.45;;;0.47;;
14133;SDS011;7147;59.364;18.018;2022-09-24T00:28:55;2.70;;;0.50;;
14133;SDS011;7147;59.364;18.018;2022-09-24T00:31:22;2.55;;;0.50;;
14133;SDS011;7147;59.364;18.018;2022-09-24T00:33:49;4.30;;;0.60;;
14133;SDS011;7147;59.364;18.018;2022-09-24T00:36:17;4.05;;;0.60;;
14133;SDS011;7147;59.364;18.018;2022-09-24T00:38:47;3.38;;;0.60;;
14133;SDS011;7147;59.364;18.018;2022-09-24T00:41:15;2.77;;;0.63;;
14133;SDS011;7147;59.364;18.018;2022-09-24T00:43:44;3.50;;;0.50;;
14133;SDS011;7147;59.364;18.018;2022-09-24T00:46:13;2.35;;;0.50;;
14133;SDS011;7147;59.364;18.018;2022-09-24T00:48:44;4.60;;;0.60;;
14133;SDS011;7147;59.364;18.018;2022-09-24T00:51:14;4.73;;;0.60;;
14133;SDS011;7147;59.364;18.018;2022-09-24T00:53:46;4.57;;;0.60;;
14133;SDS011;7147;59.364;18.018;2022-09-24T00:56:18;3.78;;;0.50;;
14133;SDS011;7147;59.364;18.018;2022-09-24T00:58:47;3.90;;;0.50;;
14133;SDS011;7147;59.364;18.018;2022-09-24T01:01:16;3.88;;;0.50;;
14133;SDS011;7147;59.364;18.018;2022-09-24T01:03:44;3.35;;;0.50;;
14133;SDS011;7147;59.364;18.018;2022-09-24T01:06:12;3.65;;;0.47;;
14133;SDS011;7147;59.364;18.018;2022-09-24T01:08:41;4.55;;;0.52;;
14133;SDS011;7147;59.364;18.018;2022-09-24T01:11:14;3.28;;;0.60;;
14133;SDS011;7147;59.364;18.018;2022-09-24T01:13:55;5.00;;;0.60;;
14133;SDS011;7147;59.364;18.018;2022-09-24T01:16:32;4.90;;;0.65;;
14133;SDS011;7147;59.364;18.018;2022-09-24T01:19:08;4.22;;;0.50;;
14133;SDS011;7147;59.364;18.018;2022-09-24T01:21:46;3.87;;;0.60;;
14133;SDS011;7147;59.364;18.018;2022-09-24T01:27:20;3.53;;;0.60;;
14133;SDS011;7147;59.364;18.018;2022-09-24T01:30:03;3.00;;;0.60;;
14133;SDS011;7147;59.364;18.018;2022-09-24T01:32:32;3.80;;;0.50;;
14133;SDS011;7147;59.364;18.018;2022-09-24T01:35:04;3.72;;;0.60;;
14133;SDS011;7147;59.364;18.018;2022-09-24T01:37:38;3.10;;;0.60;;
14133;SDS011;7147;59.364;18.018;2022-09-24T01:40:08;1.60;;;0.40;;
14133;SDS011;7147;59.364;18.018;2022-09-24T01:42:38;3.10;;;0.50;;
14133;SDS011;7147;59.364;18.018;2022-09-24T01:45:09;2.30;;;0.40;;
14133;SDS011;7147;59.364;18.018;2022-09-24T01:47:38;2.33;;;0.43;;
14133;SDS011;7147;59.364;18.018;2022-09-24T01:50:06;3.20;;;0.50;;
14133;SDS011;7147;59.364;18.018;2022-09-24T01:52:37;3.38;;;0.50;;
14133;SDS011;7147;59.364;18.018;2022-09-24T01:55:10;4.95;;;0.50;;
14133;SDS011;7147;59.364;18.018;2022-09-24T01:57:40;3.05;;;0.50;;
14133;SDS011;7147;59.364;18.018;2022-09-24T02:00:14;2.58;;;0.45;;
14133;SDS011;7147;59.364;18.018;2022-09-24T02:02:43;5.10;;;0.50;;
14133;SDS011;7147;59.364;18.018;2022-09-24T02:05:16;3.00;;;0.40;;
14133;SDS011;7147;59.364;18.018;2022-09-24T02:07:50;1.60;;;0.35;;
14133;SDS011;7147;59.364;18.018;2022-09-24T02:10:23;3.53;;;0.50;;
14133;SDS011;7147;59.364;18.018;2022-09-24T02:12:52;2.30;;;0.47;;
14133;SDS011;7147;59.364;18.018;2022-09-24T02:15:25;3.05;;;0.43;;
14133;SDS011;7147;59.364;18.018;2022-09-24T02:17:58;2.00;;;0.43;;
14133;SDS011;7147;59.364;18.018;2022-09-24T02:20:29;3.15;;;0.40;;
14133;SDS011;7147;59.364;18.018;2022-09-24T02:22:58;2.15;;;0.40;;
14133;SDS011;7147;59.364;18.018;2022-09-24T02:25:29;3.67;;;0.43;;
14133;SDS011;7147;59.364;18.018;2022-09-24T02:28:00;2.78;;;0.40;;
14133;SDS011;7147;59.364;18.018;2022-09-24T02:30:30;3.58;;;0.50;;
14133;SDS011;7147;59.364;18.018;2022-09-24T02:33:02;3.33;;;0.50;;
14133;SDS011;7147;59.364;18.018;2022-09-24T02:35:53;1.97;;;0.40;;
14133;SDS011;7147;59.364;18.018;2022-09-24T02:38:19;4.30;;;0.50;;
14133;SDS011;7147;59.364;18.018;2022-09-24T02:40:46;2.72;;;0.50;;
14133;SDS011;7147;59.364;18.018;2022-09-24T02:43:13;1.95;;;0.50;;
14133;SDS011;7147;59.364;18.018;2022-09-24T02:45:42;3.63;;;0.60;;
14133;SDS011;7147;59.364;18.018;2022-09-24T02:48:08;2.20;;;0.50;;
14133;SDS011;7147;59.364;18.018;2022-09-24T02:50:35;2.50;;;0.50;;
14133;SDS011;7147;59.364;18.018;2022-09-24T02:53:02;2.90;;;0.50;;
14133;SDS011;7147;59.364;18.018;2022-09-24T02:55:29;4.40;;;0.40;;
14133;SDS011;7147;59.364;18.018;2022-09-24T02:57:56;3.08;;;0.40;;
14133;SDS011;7147;59.364;18.018;2022-09-24T03:00:24;2.30;;;0.45;;
14133;SDS011;7147;59.364;18.018;2022-09-24T03:02:52;1.98;;;0.45;;
14133;SDS011;7147;59.364;18.018;2022-09-24T03:05:18;2.97;;;0.40;;
14133;SDS011;7147;59.364;18.018;2022-09-24T03:07:46;3.57;;;0.47;;
14133;SDS011;7147;59.364;18.018;2022-09-24T03:10:12;3.88;;;0.55;;
14133;SDS011;7147;59.364;18.018;2022-09-24T03:12:39;3.28;;;0.50;;
14133;SDS011;7147;59.364;18.018;2022-09-24T03:15:08;2.50;;;0.50;;
14133;SDS011;7147;59.364;18.018;2022-09-24T03:17:35;1.38;;;0.32;;
14133;SDS011;7147;59.364;18.018;2022-09-24T03:20:04;2.70;;;0.50;;
14133;SDS011;7147;59.364;18.018;2022-09-24T03:22:32;1.75;;;0.47;;
14133;SDS011;7147;59.364;18.018;2022-09-24T03:24:58;3.22;;;0.50;;
14133;SDS011;7147;59.364;18.018;2022-09-24T03:27:27;3.88;;;0.50;;
14133;SDS011;7147;59.364;18.018;2022-09-24T03:29:54;2.75;;;0.45;;
14133;SDS011;7147;59.364;18.018;2022-09-24T03:32:38;3.10;;;0.50;;
14133;SDS011;7147;59.364;18.018;2022-09-24T03:35:06;1.60;;;0.40;;
14133;SDS011;7147;59.364;18.018;2022-09-24T03:37:34;4.55;;;0.60;;
14133;SDS011;7147;59.364;18.018;2022-09-24T03:40:01;2.85;;;0.45;;
14133;SDS011;7147;59.364;18.018;2022-09-24T03:42:29;2.10;;;0.40;;
14133;SDS011;7147;59.364;18.018;2022-09-24T03:44:56;1.90;;;0.40;;
14133;SDS011;7147;59.364;18.018;2022-09-24T03:47:23;3.10;;;0.47;;
14133;SDS011;7147;59.364;18.018;2022-09-24T03:49:49;2.38;;;0.40;;
14133;SDS011;7147;59.364;18.018;2022-09-24T03:52:18;2.85;;;0.40;;
14133;SDS011;7147;59.364;18.018;2022-09-24T03:54:45;4.23;;;0.50;;
14133;SDS011;7147;59.364;18.018;2022-09-24T03:57:12;2.97;;;0.35;;
14133;SDS011;7147;59.364;18.018;2022-09-24T03:59:39;2.13;;;0.32;;
14133;SDS011;7147;59.364;18.018;2022-09-24T04:02:06;3.50;;;0.40;;
14133;SDS011;7147;59.364;18.018;2022-09-24T04:04:32;2.20;;;0.40;;
14133;SDS011;7147;59.364;18.018;2022-09-24T04:06:59;2.13;;;0.40;;
14133;SDS011;7147;59.364;18.018;2022-09-24T04:09:27;2.92;;;0.40;;
14133;SDS011;7147;59.364;18.018;2022-09-24T04:11:58;1.98;;;0.50;;
14133;SDS011;7147;59.364;18.018;2022-09-24T04:14:25;2.33;;;0.30;;
14133;SDS011;7147;59.364;18.018;2022-09-24T04:16:52;3.20;;;0.40;;
14133;SDS011;7147;59.364;18.018;2022-09-24T04:19:19;1.45;;;0.40;;
14133;SDS011;7147;59.364;18.018;2022-09-24T04:21:45;3.30;;;0.47;;
14133;SDS011;7147;59.364;18.018;2022-09-24T04:24:12;3.17;;;0.50;;
14133;SDS011;7147;59.364;18.018;2022-09-24T04:26:40;2.28;;;0.40;;
14133;SDS011;7147;59.364;18.018;2022-09-24T04:29:07;2.58;;;0.40;;
14133;SDS011;7147;59.364;18.018;2022-09-24T04:31:34;2.35;;;0.40;;
14133;SDS011;7147;59.364;18.018;2022-09-24T04:34:01;2.42;;;0.45;;
14133;SDS011;7147;59.364;18.018;2022-09-24T04:36:27;4.50;;;0.50;;
14133;SDS011;7147;59.364;18.018;2022-09-24T04:38:54;3.67;;;0.40;;
14133;SDS011;7147;59.364;18.018;2022-09-24T04:41:21;2.38;;;0.35;;
14133;SDS011;7147;59.364;18.018;2022-09-24T04:43:49;2.28;;;0.40;;
14133;SDS011;7147;59.364;18.018;2022-09-24T04:46:16;2.60;;;0.40;;
14133;SDS011;7147;59.364;18.018;2022-09-24T04:48:44;2.78;;;0.40;;
14133;SDS011;7147;59.364;18.018;2022-09-24T04:51:10;6.03;;;0.53;;
14133;SDS011;7147;59.364;18.018;2022-09-24T04:53:37;2.95;;;0.50;;
14133;SDS011;7147;59.364;18.018;2022-09-24T04:56:05;5.95;;;0.50;;
14133;SDS011;7147;59.364;18.018;2022-09-24T04:58:36;3.08;;;0.40;;
14133;SDS011;7147;59.364;18.018;2022-09-24T05:01:04;1.95;;;0.40;;
14133;SDS011;7147;59.364;18.018;2022-09-24T05:03:31;2.83;;;0.40;;
14133;SDS011;7147;59.364;18.018;2022-09-24T05:05:58;4.57;;;0.55;;
14133;SDS011;7147;59.364;18.018;2022-09-24T05:08:26;4.00;;;0.43;;
14133;SDS011;7147;59.364;18.018;2022-09-24T05:10:52;3.17;;;0.40;;
14133;SDS011;7147;59.364;18.018;2022-09-24T05:13:19;3.88;;;0.60;;
14133;SDS011;7147;59.364;18.018;2022-09-24T05:15:46;1.93;;;0.53;;
14133;SDS011;7147;59.364;18.018;2022-09-24T05:18:15;1.85;;;0.30;;
14133;SDS011;7147;59.364;18.018;2022-09-24T05:20:41;4.25;;;0.50;;
14133;SDS011;7147;59.364;18.018;2022-09-24T05:23:08;2.15;;;0.40;;
14133;SDS011;7147;59.364;18.018;2022-09-24T05:25:35;2.47;;;0.40;;
14133;SDS011;7147;59.364;18.018;2022-09-24T05:28:22;3.47;;;0.45;;
14133;SDS011;7147;59.364;18.018;2022-09-24T05:30:48;3.20;;;0.47;;
14133;SDS011;7147;59.364;18.018;2022-09-24T05:33:16;5.40;;;0.57;;
14133;SDS011;7147;59.364;18.018;2022-09-24T05:35:43;3.47;;;0.43;;
14133;SDS011;7147;59.364;18.018;2022-09-24T05:38:10;4.50;;;0.50;;
14133;SDS011;7147;59.364;18.018;2022-09-24T05:40:37;3.87;;;0.50;;
14133;SDS011;7147;59.364;18.018;2022-09-24T05:43:12;5.72;;;0.50;;
14133;SDS011;7147;59.364;18.018;2022-09-24T05:45:40;3.90;;;0.60;;
14133;SDS011;7147;59.364;18.018;2022-09-24T05:48:09;4.70;;;0.57;;
14133;SDS011;7147;59.364;18.018;2022-09-24T05:50:37;4.60;;;0.60;;
14133;SDS011;7147;59.364;18.018;2022-09-24T05:53:04;2.38;;;0.50;;
14133;SDS011;7147;59.364;18.018;2022-09-24T05:55:31;3.13;;;0.50;;
14133;SDS011;7147;59.364;18.018;2022-09-24T05:58:04;2.58;;;0.50;;
14133;SDS011;7147;59.364;18.018;2022-09-24T06:00:32;2.88;;;0.50;;
14133;SDS011;7147;59.364;18.018;2022-09-24T06:03:01;2.60;;;0.50;;
14133;SDS011;7147;59.364;18.018;2022-09-24T06:05:29;2.53;;;0.47;;
14133;SDS011;7147;59.364;18.018;2022-09-24T06:07:59;3.35;;;0.60;;
14133;SDS011;7147;59.364;18.018;2022-09-24T06:10:26;3.50;;;0.63;;
14133;SDS011;7147;59.364;18.018;2022-09-24T06:12:53;4.53;;;0.52;;
14133;SDS011;7147;59.364;18.018;2022-09-24T06:15:20;3.70;;;0.52;;
14133;SDS011;7147;59.364;18.018;2022-09-24T06:17:48;5.17;;;0.67;;
14133;SDS011;7147;59.364;18.018;2022-09-24T06:20:18;5.43;;;0.60;;
14133;SDS011;7147;59.364;18.018;2022-09-24T06:22:44;3.63;;;0.60;;
14133;SDS011;7147;59.364;18.018;2022-09-24T06:25:13;4.07;;;0.50;;
14133;SDS011;7147;59.364;18.018;2022-09-24T06:27:39;3.17;;;0.50;;
14133;SDS011;7147;59.364;18.018;2022-09-24T06:30:07;3.78;;;0.52;;
14133;SDS011;7147;59.364;18.018;2022-09-24T06:32:34;3.40;;;0.50;;
14133;SDS011;7147;59.364;18.018;2022-09-24T06:35:01;4.38;;;0.60;;
14133;SDS011;7147;59.364;18.018;2022-09-24T06:37:28;2.60;;;0.50;;
14133;SDS011;7147;59.364;18.018;2022-09-24T06:39:55;3.40;;;0.50;;
14133;SDS011;7147;59.364;18.018;2022-09-24T06:42:23;3.10;;;0.60;;
14133;SDS011;7147;59.364;18.018;2022-09-24T06:44:51;2.67;;;0.50;;
14133;SDS011;7147;59.364;18.018;2022-09-24T06:47:18;2.38;;;0.50;;
14133;SDS011;7147;59.364;18.018;2022-09-24T06:49:45;3.45;;;0.50;;
14133;SDS011;7147;59.364;18.018;2022-09-24T06:52:14;3.10;;;0.40;;
14133;SDS011;7147;59.364;18.018;2022-09-24T06:54:41;5.03;;;0.50;;
14133;SDS011;7147;59.364;18.018;2022-09-24T06:57:08;5.05;;;0.40;;
14133;SDS011;7147;59.364;18.018;2022-09-24T06:59:36;4.03;;;0.43;;
14133;SDS011;7147;59.364;18.018;2022-09-24T07:02:03;2.80;;;0.40;;
14133;SDS011;7147;59.364;18.018;2022-09-24T07:04:30;3.80;;;0.40;;
14133;SDS011;7147;59.364;18.018;2022-09-24T07:06:57;2.70;;;0.40;;
14133;SDS011;7147;59.364;18.018;2022-09-24T07:09:40;2.42;;;0.30;;
14133;SDS011;7147;59.364;18.018;2022-09-24T07:12:07;3.07;;;0.50;;
14133;SDS011;7147;59.364;18.018;2022-09-24T07:14:34;4.28;;;0.60;;
14133;SDS011;7147;59.364;18.018;2022-09-24T07:17:03;2.42;;;0.40;;
14133;SDS011;7147;59.364;18.018;2022-09-24T07:19:30;3.35;;;0.40;;
14133;SDS011;7147;59.364;18.018;2022-09-24T07:21:56;1.20;;;0.28;;
14133;SDS011;7147;59.364;18.018;2022-09-24T07:24:23;2.57;;;0.43;;
14133;SDS011;7147;59.364;18.018;2022-09-24T07:26:50;2.58;;;0.50;;
14133;SDS011;7147;59.364;18.018;2022-09-24T07:29:17;2.80;;;0.40;;
14133;SDS011;7147;59.364;18.018;2022-09-24T07:31:44;2.37;;;0.40;;
14133;SDS011;7147;59.364;18.018;2022-09-24T07:34:12;2.58;;;0.40;;
14133;SDS011;7147;59.364;18.018;2022-09-24T07:36:39;3.30;;;0.47;;
14133;SDS011;7147;59.364;18.018;2022-09-24T07:39:06;3.28;;;0.40;;
14133;SDS011;7147;59.364;18.018;2022-09-24T07:41:33;2.65;;;0.38;;
14133;SDS011;7147;59.364;18.018;2022-09-24T07:44:00;4.00;;;0.40;;
14133;SDS011;7147;59.364;18.018;2022-09-24T07:46:27;3.45;;;0.40;;
14133;SDS011;7147;59.364;18.018;2022-09-24T07:48:54;5.25;;;0.50;;
14133;SDS011;7147;59.364;18.018;2022-09-24T07:51:25;1.50;;;0.30;;
14133;SDS011;7147;59.364;18.018;2022-09-24T07:53:53;2.45;;;0.40;;
14133;SDS011;7147;59.364;18.018;2022-09-24T07:56:21;2.50;;;0.40;;
14133;SDS011;7147;59.364;18.018;2022-09-24T07:58:49;3.47;;;0.40;;
14133;SDS011;7147;59.364;18.018;2022-09-24T08:01:17;1.25;;;0.30;;
14133;SDS011;7147;59.364;18.018;2022-09-24T08:03:44;2.10;;;0.40;;
14133;SDS011;7147;59.364;18.018;2022-09-24T08:06:11;1.70;;;0.30;;
14133;SDS011;7147;59.364;18.018;2022-09-24T08:08:40;2.22;;;0.40;;
14133;SDS011;7147;59.364;18.018;2022-09-24T08:11:08;1.92;;;0.40;;
14133;SDS011;7147;59.364;18.018;2022-09-24T08:13:36;2.95;;;0.40;;
14133;SDS011;7147;59.364;18.018;2022-09-24T08:16:04;2.92;;;0.45;;
14133;SDS011;7147;59.364;18.018;2022-09-24T08:18:31;2.92;;;0.40;;
14133;SDS011;7147;59.364;18.018;2022-09-24T08:21:02;1.27;;;0.22;;
14133;SDS011;7147;59.364;18.018;2022-09-24T08:23:30;3.45;;;0.40;;
14133;SDS011;7147;59.364;18.018;2022-09-24T08:26:00;2.83;;;0.30;;
14133;SDS011;7147;59.364;18.018;2022-09-24T08:28:27;2.88;;;0.50;;
14133;SDS011;7147;59.364;18.018;2022-09-24T08:30:56;4.10;;;0.40;;
14133;SDS011;7147;59.364;18.018;2022-09-24T08:33:24;1.73;;;0.30;;
14133;SDS011;7147;59.364;18.018;2022-09-24T08:35:51;2.30;;;0.30;;
14133;SDS011;7147;59.364;18.018;2022-09-24T08:38:18;2.30;;;0.30;;
14133;SDS011;7147;59.364;18.018;2022-09-24T08:40:48;2.85;;;0.30;;
14133;SDS011;7147;59.364;18.018;2022-09-24T08:43:25;5.35;;;0.43;;
14133;SDS011;7147;59.364;18.018;2022-09-24T08:46:09;2.95;;;0.40;;
14133;SDS011;7147;59.364;18.018;2022-09-24T08:48:57;2.55;;;0.40;;
14133;SDS011;7147;59.364;18.018;2022-09-24T08:51:26;1.02;;;0.20;;
14133;SDS011;7147;59.364;18.018;2022-09-24T08:53:59;2.92;;;0.40;;
14133;SDS011;7147;59.364;18.018;2022-09-24T08:56:31;4.22;;;0.40;;
14133;SDS011;7147;59.364;18.018;2022-09-24T08:59:03;2.65;;;0.30;;
14133;SDS011;7147;59.364;18.018;2022-09-24T09:01:43;2.83;;;0.40;;
14133;SDS011;7147;59.364;18.018;2022-09-24T09:04:23;1.88;;;0.38;;
14133;SDS011;7147;59.364;18.018;2022-09-24T09:06:59;2.53;;;0.32;;
14133;SDS011;7147;59.364;18.018;2022-09-24T09:09:38;1.85;;;0.22;;
14133;SDS011;7147;59.364;18.018;2022-09-24T09:12:11;2.40;;;0.30;;
14133;SDS011;7147;59.364;18.018;2022-09-24T09:14:42;2.63;;;0.40;;
14133;SDS011;7147;59.364;18.018;2022-09-24T09:17:18;3.00;;;0.40;;
14133;SDS011;7147;59.364;18.018;2022-09-24T09:19:55;2.72;;;0.40;;
14133;SDS011;7147;59.364;18.018;2022-09-24T09:22:24;2.05;;;0.30;;
14133;SDS011;7147;59.364;18.018;2022-09-24T09:24:54;1.87;;;0.30;;
14133;SDS011;7147;59.364;18.018;2022-09-24T09:27:28;2.20;;;0.30;;
14133;SDS011;7147;59.364;18.018;2022-09-24T09:29:56;1.75;;;0.30;;
14133;SDS011;7147;59.364;18.018;2022-09-24T09:32:30;2.78;;;0.40;;
14133;SDS011;7147;59.364;18.018;2022-09-24T09:35:10;3.00;;;0.35;;
14133;SDS011;7147;59.364;18.018;2022-09-24T09:37:46;2.97;;;0.30;;
14133;SDS011;7147;59.364;18.018;2022-09-24T09:40:26;2.58;;;0.40;;
14133;SDS011;7147;59.364;18.018;2022-09-24T09:42:59;2.03;;;0.30;;
14133;SDS011;7147;59.364;18.018;2022-09-24T09:45:31;2.65;;;0.25;;
14133;SDS011;7147;59.364;18.018;2022-09-24T09:48:03;2.13;;;0.30;;
14133;SDS011;7147;59.364;18.018;2022-09-24T09:50:32;3.58;;;0.30;;
14133;SDS011;7147;59.364;18.018;2022-09-24T09:53:02;3.00;;;0.30;;
14133;SDS011;7147;59.364;18.018;2022-09-24T09:55:30;1.27;;;0.25;;
14133;SDS011;7147;59.364;18.018;2022-09-24T09:58:07;3.20;;;0.30;;
14133;SDS011;7147;59.364;18.018;2022-09-24T10:00:38;1.70;;;0.30;;
14133;SDS011;7147;59.364;18.018;2022-09-24T10:03:05;1.95;;;0.22;;
14133;SDS011;7147;59.364;18.018;2022-09-24T10:05:50;1.60;;;0.20;;
14133;SDS011;7147;59.364;18.018;2022-09-24T10:08:19;2.85;;;0.40;;
14133;SDS011;7147;59.364;18.018;2022-09-24T10:10:51;2.42;;;0.30;;
14133;SDS011;7147;59.364;18.018;2022-09-24T10:13:19;2.92;;;0.30;;
14133;SDS011;7147;59.364;18.018;2022-09-24T10:15:51;2.35;;;0.30;;
14133;SDS011;7147;59.364;18.018;2022-09-24T10:18:24;2.15;;;0.30;;
14133;SDS011;7147;59.364;18.018;2022-09-24T10:20:55;2.95;;;0.30;;
14133;SDS011;7147;59.364;18.018;2022-09-24T10:23:29;1.40;;;0.30;;
14133;SDS011;7147;59.364;18.018;2022-09-24T10:25:59;2.45;;;0.30;;
14133;SDS011;7147;59.364;18.018;2022-09-24T10:28:28;1.95;;;0.30;;
14133;SDS011;7147;59.364;18.018;2022-09-24T10:31:16;1.60;;;0.30;;
14133;SDS011;7147;59.364;18.018;2022-09-24T10:33:46;2.65;;;0.25;;
14133;SDS011;7147;59.364;18.018;2022-09-24T10:36:15;1.20;;;0.30;;
14133;SDS011;7147;59.364;18.018;2022-09-24T10:38:46;2.05;;;0.20;;
14133;SDS011;7147;59.364;18.018;2022-09-24T10:41:14;4.13;;;0.57;;
14133;SDS011;7147;59.364;18.018;2022-09-24T10:43:51;2.92;;;0.40;;
14133;SDS011;7147;59.364;18.018;2022-09-24T10:49:24;2.75;;;0.20;;
14133;SDS011;7147;59.364;18.018;2022-09-24T10:52:01;2.08;;;0.30;;
14133;SDS011;7147;59.364;18.018;2022-09-24T10:54:41;3.45;;;0.40;;
14133;SDS011;7147;59.364;18.018;2022-09-24T10:57:21;2.92;;;0.30;;
14133;SDS011;7147;59.364;18.018;2022-09-24T10:59:56;2.70;;;0.30;;
14133;SDS011;7147;59.364;18.018;2022-09-24T11:05:30;3.33;;;0.30;;
14133;SDS011;7147;59.364;18.018;2022-09-24T11:08:03;2.95;;;0.40;;
14133;SDS011;7147;59.364;18.018;2022-09-24T11:10:54;3.35;;;0.32;;
14133;SDS011;7147;59.364;18.018;2022-09-24T11:13:36;1.83;;;0.25;;
14133;SDS011;7147;59.364;18.018;2022-09-24T11:16:18;1.20;;;0.20;;
14133;SDS011;7147;59.364;18.018;2022-09-24T11:18:55;1.10;;;0.20;;
14133;SDS011;7147;59.364;18.018;2022-09-24T11:21:30;1.73;;;0.30;;
14133;SDS011;7147;59.364;18.018;2022-09-24T11:24:15;0.70;;;0.22;;
14133;SDS011;7147;59.364;18.018;2022-09-24T11:26:56;2.70;;;0.35;;
14133;SDS011;7147;59.364;18.018;2022-09-24T11:29:35;3.20;;;0.50;;
14133;SDS011;7147;59.364;18.018;2022-09-24T11:32:14;2.67;;;0.40;;
14133;SDS011;7147;59.364;18.018;2022-09-24T11:34:54;1.67;;;0.30;;
14133;SDS011;7147;59.364;18.018;2022-09-24T11:37:38;4.35;;;0.50;;
14133;SDS011;7147;59.364;18.018;2022-09-24T11:40:21;2.15;;;0.22;;
14133;SDS011;7147;59.364;18.018;2022-09-24T11:42:58;2.95;;;0.47;;
14133;SDS011;7147;59.364;18.018;2022-09-24T11:45:40;2.13;;;0.30;;
14133;SDS011;7147;59.364;18.018;2022-09-24T11:48:34;1.58;;;0.20;;
14133;SDS011;7147;59.364;18.018;2022-09-24T11:51:19;2.08;;;0.22;;
14133;SDS011;7147;59.364;18.018;2022-09-24T11:53:56;1.98;;;0.30;;
14133;SDS011;7147;59.364;18.018;2022-09-24T11:56:29;3.17;;;0.30;;
14133;SDS011;7147;59.364;18.018;2022-09-24T11:59:09;1.67;;;0.20;;
14133;SDS011;7147;59.364;18.018;2022-09-24T12:01:43;1.97;;;0.30;;
14133;SDS011;7147;59.364;18.018;2022-09-24T12:04:15;1.57;;;0.20;;
14133;SDS011;7147;59.364;18.018;2022-09-24T12:06:47;1.30;;;0.30;;
14133;SDS011;7147;59.364;18.018;2022-09-24T12:09:21;2.65;;;0.30;;
14133;SDS011;7147;59.364;18.018;2022-09-24T12:11:52;1.30;;;0.20;;
14133;SDS011;7147;59.364;18.018;2022-09-24T12:14:27;3.03;;;0.30;;
14133;SDS011;7147;59.364;18.018;2022-09-24T12:16:58;2.22;;;0.30;;
14133;SDS011;7147;59.364;18.018;2022-09-24T12:19:30;1.42;;;0.30;;
14133;SDS011;7147;59.364;18.018;2022-09-24T12:22:01;2.90;;;0.22;;
14133;SDS011;7147;59.364;18.018;2022-09-24T12:24:32;1.45;;;0.20;;
14133;SDS011;7147;59.364;18.018;2022-09-24T12:27:03;1.48;;;0.20;;
14133;SDS011;7147;59.364;18.018;2022-09-24T12:29:39;3.60;;;0.30;;
14133;SDS011;7147;59.364;18.018;2022-09-24T12:32:40;1.52;;;0.22;;
14133;SDS011;7147;59.364;18.018;2022-09-24T12:35:25;1.92;;;0.40;;
14133;SDS011;7147;59.364;18.018;2022-09-24T12:38:00;2.80;;;0.40;;
14133;SDS011;7147;59.364;18.018;2022-09-24T12:40:42;3.92;;;0.30;;
14133;SDS011;7147;59.364;18.018;2022-09-24T12:43:35;3.45;;;0.30;;
14133;SDS011;7147;59.364;18.018;2022-09-24T12:46:13;2.87;;;0.40;;
14133;SDS011;7147;59.364;18.018;2022-09-24T12:48:43;4.15;;;0.47;;
14133;SDS011;7147;59.364;18.018;2022-09-24T12:51:11;2.30;;;0.30;;
14133;SDS011;7147;59.364;18.018;2022-09-24T12:53:39;4.05;;;0.30;;
14133;SDS011;7147;59.364;18.018;2022-09-24T12:56:09;2.55;;;0.38;;
14133;SDS011;7147;59.364;18.018;2022-09-24T12:58:37;3.58;;;0.45;;
14133;SDS011;7147;59.364;18.018;2022-09-24T13:01:13;2.92;;;0.38;;
14133;SDS011;7147;59.364;18.018;2022-09-24T13:04:00;0.73;;;0.28;;
14133;SDS011;7147;59.364;18.018;2022-09-24T13:06:30;3.03;;;0.30;;
14133;SDS011;7147;59.364;18.018;2022-09-24T13:09:00;3.47;;;0.30;;
14133;SDS011;7147;59.364;18.018;2022-09-24T13:11:30;3.22;;;0.30;;
14133;SDS011;7147;59.364;18.018;2022-09-24T13:14:05;1.40;;;0.30;;
14133;SDS011;7147;59.364;18.018;2022-09-24T13:16:44;2.63;;;0.40;;
14133;SDS011;7147;59.364;18.018;2022-09-24T13:19:21;1.30;;;0.30;;
14133;SDS011;7147;59.364;18.018;2022-09-24T13:21:55;4.00;;;0.40;;
14133;SDS011;7147;59.364;18.018;2022-09-24T13:24:25;3.38;;;0.40;;
14133;SDS011;7147;59.364;18.018;2022-09-24T13:27:08;1.63;;;0.22;;
14133;SDS011;7147;59.364;18.018;2022-09-24T13:29:45;2.88;;;0.32;;
14133;SDS011;7147;59.364;18.018;2022-09-24T13:32:14;2.20;;;0.30;;
14133;SDS011;7147;59.364;18.018;2022-09-24T13:34:46;2.00;;;0.30;;
14133;SDS011;7147;59.364;18.018;2022-09-24T13:37:17;2.30;;;0.30;;
14133;SDS011;7147;59.364;18.018;2022-09-24T13:39:47;2.67;;;0.35;;
14133;SDS011;7147;59.364;18.018;2022-09-24T13:42:23;1.83;;;0.30;;
14133;SDS011;7147;59.364;18.018;2022-09-24T13:45:03;1.38;;;0.40;;
14133;SDS011;7147;59.364;18.018;2022-09-24T13:47:33;3.57;;;0.30;;
14133;SDS011;7147;59.364;18.018;2022-09-24T13:50:03;2.63;;;0.30;;
14133;SDS011;7147;59.364;18.018;2022-09-24T13:52:39;2.47;;;0.30;;
14133;SDS011;7147;59.364;18.018;2022-09-24T13:55:10;3.03;;;0.30;;
14133;SDS011;7147;59.364;18.018;2022-09-24T13:57:45;2.08;;;0.30;;
14133;SDS011;7147;59.364;18.018;2022-09-24T14:00:14;2.83;;;0.45;;
14133;SDS011;7147;59.364;18.018;2022-09-24T14:02:50;5.60;;;0.40;;
14133;SDS011;7147;59.364;18.018;2022-09-24T14:05:20;2.10;;;0.30;;
14133;SDS011;7147;59.364;18.018;2022-09-24T14:07:52;1.55;;;0.30;;
14133;SDS011;7147;59.364;18.018;2022-09-24T14:10:20;3.57;;;0.33;;
14133;SDS011;7147;59.364;18.018;2022-09-24T14:12:58;2.17;;;0.30;;
14133;SDS011;7147;59.364;18.018;2022-09-24T14:15:33;1.20;;;0.20;;
14133;SDS011;7147;59.364;18.018;2022-09-24T14:18:00;2.72;;;0.30;;
14133;SDS011;7147;59.364;18.018;2022-09-24T14:20:28;3.55;;;0.30;;
14133;SDS011;7147;59.364;18.018;2022-09-24T14:22:59;3.10;;;0.40;;
14133;SDS011;7147;59.364;18.018;2022-09-24T14:25:27;1.00;;;0.30;;
14133;SDS011;7147;59.364;18.018;2022-09-24T14:27:56;3.95;;;0.40;;
14133;SDS011;7147;59.364;18.018;2022-09-24T14:30:27;2.10;;;0.40;;
14133;SDS011;7147;59.364;18.018;2022-09-24T14:32:57;2.60;;;0.30;;
14133;SDS011;7147;59.364;18.018;2022-09-24T14:35:28;2.00;;;0.40;;
14133;SDS011;7147;59.364;18.018;2022-09-24T14:37:57;3.05;;;0.35;;
14133;SDS011;7147;59.364;18.018;2022-09-24T14:40:35;2.17;;;0.30;;
14133;SDS011;7147;59.364;18.018;2022-09-24T14:43:10;1.40;;;0.30;;
14133;SDS011;7147;59.364;18.018;2022-09-24T14:45:42;3.30;;;0.40;;
14133;SDS011;7147;59.364;18.018;2022-09-24T14:48:17;1.40;;;0.30;;
14133;SDS011;7147;59.364;18.018;2022-09-24T14:50:53;1.20;;;0.23;;
14133;SDS011;7147;59.364;18.018;2022-09-24T14:53:23;2.58;;;0.30;;
14133;SDS011;7147;59.364;18.018;2022-09-24T14:55:53;3.92;;;0.30;;
14133;SDS011;7147;59.364;18.018;2022-09-24T14:58:23;2.28;;;0.35;;
14133;SDS011;7147;59.364;18.018;2022-09-24T15:00:52;2.53;;;0.40;;
14133;SDS011;7147;59.364;18.018;2022-09-24T15:03:24;1.67;;;0.30;;
14133;SDS011;7147;59.364;18.018;2022-09-24T15:06:02;3.10;;;0.40;;
14133;SDS011;7147;59.364;18.018;2022-09-24T15:08:38;4.45;;;0.40;;
14133;SDS011;7147;59.364;18.018;2022-09-24T15:11:13;2.50;;;0.30;;
14133;SDS011;7147;59.364;18.018;2022-09-24T15:13:43;2.83;;;0.40;;
14133;SDS011;7147;59.364;18.018;2022-09-24T15:16:17;3.33;;;0.32;;
14133;SDS011;7147;59.364;18.018;2022-09-24T15:18:47;2.67;;;0.40;;
14133;SDS011;7147;59.364;18.018;2022-09-24T15:21:22;2.10;;;0.30;;